Time;durP1;ratioP1;P1;durP2;ratioP2;P2;SDS_P1;SDS_P2;PMS_P1;PMS_P2;Temp;Humidity;BMP_temperature;BMP_pressure;BME280_temperature;BME280_humidity;BME280_pressure;Samples;Min_cycle;Max_cycle;Signal;HPM_P1;HPM_P2
2022/06/01 00:02:03;;;;;;;11.63;9.88;;;16.70;99.90;;;;;;1905380;75;21090;-78
2022/06/01 00:05:13;;;;;;;13.48;10.68;;;16.70;99.90;;;;;;1914495;73;21184;-79
2022/06/01 00:08:06;;;;;;;10.45;9.43;;;16.70;99.90;;;;;;1901471;73;21097;-78
2022/06/01 00:10:57;;;;;;;10.58;7.92;;;16.70;99.90;;;;;;1885363;75;22311;-79
2022/06/01 00:13:49;;;;;;;19.80;18.00;;;16.70;99.90;;;;;;1884734;75;21514;-78
2022/06/01 00:16:42;;;;;;;44.20;40.08;;;16.60;99.90;;;;;;1886577;75;21146;-78
2022/06/01 00:19:33;;;;;;;80.03;72.35;;;16.60;99.90;;;;;;1896547;75;21051;-78
2022/06/01 00:22:25;;;;;;;109.05;98.50;;;16.60;99.90;;;;;;1881262;75;21647;-78
2022/06/01 00:25:17;;;;;;;117.45;106.27;;;16.60;99.90;;;;;;1892771;75;21511;-78
2022/06/01 00:28:09;;;;;;;121.92;110.05;;;16.60;99.90;;;;;;1897190;75;21555;-78
2022/06/01 00:33:42;;;;;;;72.08;65.08;;;16.60;99.90;;;;;;1957610;72;22099;-78
2022/06/01 00:36:52;;;;;;;49.70;44.75;;;16.60;99.90;;;;;;1908168;73;21166;-78
2022/06/01 00:40:01;;;;;;;34.58;31.10;;;16.50;99.90;;;;;;1901370;75;21051;-78
2022/06/01 00:42:57;;;;;;;31.05;27.85;;;16.50;99.90;;;;;;1905307;75;21097;-78
2022/06/01 00:48:48;;;;;;;15.58;13.98;;;16.50;99.90;;;;;;1935818;72;22201;-78
2022/06/01 00:51:58;;;;;;;15.80;13.15;;;16.50;99.90;;;;;;1905057;75;21619;-78
2022/06/01 00:55:12;;;;;;;11.45;10.43;;;16.50;99.90;;;;;;1888068;75;21071;-78
2022/06/01 01:00:46;;;;;;;9.90;8.75;;;16.50;99.90;;;;;;1936700;72;22142;-78
2022/06/01 01:06:39;;;;;;;5.92;5.40;;;16.40;99.90;;;;;;1967909;72;22652;-78
2022/06/01 01:09:49;;;;;;;6.42;5.28;;;16.40;99.90;;;;;;1899174;75;21098;-77
2022/06/01 01:13:01;;;;;;;5.58;4.60;;;16.40;99.90;;;;;;1901515;75;21141;-78
2022/06/01 01:15:55;;;;;;;3.40;3.10;;;16.40;99.90;;;;;;1895900;75;21160;-79
2022/06/01 01:19:08;;;;;;;3.80;2.33;;;16.30;99.90;;;;;;1884609;75;21291;-79
2022/06/01 01:22:03;;;;;;;3.58;2.27;;;16.30;99.90;;;;;;1886670;75;21146;-80
2022/06/01 01:25:20;;;;;;;3.77;2.45;;;16.20;99.90;;;;;;1903337;75;21502;-78
2022/06/01 01:28:12;;;;;;;2.98;2.22;;;16.20;99.90;;;;;;1904209;75;21219;-78
2022/06/01 01:31:06;;;;;;;3.95;2.27;;;16.20;99.90;;;;;;1885276;75;21214;-78
2022/06/01 01:33:58;;;;;;;2.85;2.55;;;16.20;99.90;;;;;;1892087;75;21047;-78
2022/06/01 01:39:34;;;;;;;3.58;2.60;;;16.20;99.90;;;;;;1945585;72;22154;-78
2022/06/01 01:42:45;;;;;;;6.45;2.70;;;16.20;99.90;;;;;;1917679;73;21054;-78
2022/06/01 01:45:55;;;;;;;5.65;2.72;;;16.20;99.90;;;;;;1930742;73;22104;-78
2022/06/01 01:48:47;;;;;;;4.75;2.87;;;16.20;99.90;;;;;;1935226;73;21100;-78
2022/06/01 01:52:00;;;;;;;4.42;2.75;;;16.10;99.90;;;;;;1894469;75;21059;-78
2022/06/01 01:54:55;;;;;;;3.22;2.92;;;16.10;99.90;;;;;;1922421;73;21158;-78
2022/06/01 01:57:51;;;;;;;4.65;3.12;;;16.00;99.90;;;;;;1917258;73;21067;-78
2022/06/01 02:03:27;;;;;;;2.62;2.40;;;16.10;99.90;;;;;;1939832;72;22150;-78
2022/06/01 02:06:39;;;;;;;4.08;2.55;;;16.10;99.90;;;;;;1908115;73;21525;-78
2022/06/01 02:12:59;;;;;;;3.72;1.98;;;16.00;99.90;;;;;;1907899;75;21149;-78
2022/06/01 02:16:10;;;;;;;3.58;1.57;;;16.00;99.90;;;;;;1892171;75;21108;-78
2022/06/01 02:21:49;;;;;;;3.62;1.70;;;16.00;99.90;;;;;;1944275;72;22128;-78
2022/06/01 02:27:43;;;;;;;3.35;1.92;;;16.00;99.90;;;;;;1953979;72;22240;-77
2022/06/01 02:30:55;;;;;;;4.08;2.15;;;16.00;99.90;;;;;;1920470;73;21093;-79
2022/06/01 02:34:07;;;;;;;2.72;2.00;;;16.00;99.90;;;;;;1931738;73;21082;-78
2022/06/01 02:37:01;;;;;;;4.70;1.80;;;16.00;99.90;;;;;;1932784;73;21133;-78
2022/06/01 02:42:52;;;;;;;5.40;2.40;;;16.10;99.90;;;;;;1950809;72;22212;-78
2022/06/01 02:48:43;;;;;;;2.95;2.22;;;16.20;99.90;;;;;;1953027;72;22211;-77
2022/06/01 02:54:31;;;;;;;4.87;2.22;;;16.20;99.90;;;;;;1925752;72;22243;-77
2022/06/01 02:57:42;;;;;;;2.58;1.90;;;16.20;99.90;;;;;;1893829;75;21102;-77
2022/06/01 03:00:53;;;;;;;3.12;1.77;;;16.20;99.90;;;;;;1890301;75;21548;-77
2022/06/01 03:03:44;;;;;;;4.97;2.08;;;16.20;99.90;;;;;;1884781;75;21130;-77
2022/06/01 03:06:54;;;;;;;3.22;2.05;;;16.20;99.90;;;;;;1895329;73;21090;-77
2022/06/01 03:09:47;;;;;;;2.98;1.90;;;16.20;99.90;;;;;;1899491;73;21189;-77
2022/06/01 03:12:39;;;;;;;4.25;2.15;;;16.20;99.90;;;;;;1902703;75;21107;-79
2022/06/01 03:15:31;;;;;;;2.83;2.30;;;16.20;99.90;;;;;;1916041;75;21038;-78
2022/06/01 03:18:24;;;;;;;3.55;2.30;;;16.20;99.90;;;;;;1888209;75;21183;-79
2022/06/01 03:21:15;;;;;;;6.20;2.60;;;16.10;99.90;;;;;;1905849;75;21055;-78
2022/06/01 03:26:46;;;;;;;4.33;2.27;;;16.10;99.90;;;;;;1942181;72;22145;-77
2022/06/01 03:32:43;;;;;;;2.70;1.80;;;16.10;99.90;;;;;;1935688;72;22601;-77
2022/06/01 03:35:53;;;;;;;2.20;2.00;;;16.10;99.90;;;;;;1922947;73;21051;-78
2022/06/01 03:41:43;;;;;;;2.83;2.20;;;16.10;99.90;;;;;;1946949;72;22227;-78
2022/06/01 03:48:21;;;;;;;4.15;2.02;;;16.20;99.90;;;;;;1915548;75;21097;-78
2022/06/01 03:51:13;;;;;;;2.40;2.20;;;16.20;99.90;;;;;;1911072;74;21053;-77
2022/06/01 03:57:01;;;;;;;2.58;2.00;;;16.30;99.90;;;;;;1948419;72;22286;-77
2022/06/01 04:00:16;;;;;;;3.67;2.35;;;16.30;99.90;;;;;;1920557;73;21055;-79
2022/06/01 04:03:27;;;;;;;2.27;2.08;;;16.30;99.90;;;;;;1917189;75;21113;-79
2022/06/01 04:06:20;;;;;;;3.02;2.20;;;16.40;99.90;;;;;;1918212;73;21037;-78
2022/06/01 04:09:30;;;;;;;2.45;2.00;;;16.30;99.90;;;;;;1919975;73;21131;-82
2022/06/01 04:15:01;;;;;;;2.67;2.00;;;16.40;99.90;;;;;;1950873;72;22200;-81
2022/06/01 04:18:12;;;;;;;4.70;1.82;;;16.40;99.90;;;;;;1898744;75;21070;-81
2022/06/01 04:21:24;;;;;;;2.20;2.00;;;16.40;99.90;;;;;;1898389;75;21134;-82
2022/06/01 04:24:19;;;;;;;2.50;1.75;;;16.40;99.90;;;;;;1884681;75;21186;-82
2022/06/01 04:27:30;;;;;;;2.22;1.70;;;16.50;99.90;;;;;;1895353;75;21109;-82
2022/06/01 04:30:22;;;;;;;2.35;1.70;;;16.50;99.90;;;;;;1897851;75;21059;-82
2022/06/01 04:33:14;;;;;;;2.22;1.72;;;16.50;99.90;;;;;;1897347;75;21055;-82
2022/06/01 04:38:44;;;;;;;2.12;1.80;;;16.60;99.90;;;;;;1945349;72;22767;-81
2022/06/01 04:41:54;;;;;;;3.12;2.12;;;16.70;99.90;;;;;;1933497;73;21541;-81
2022/06/01 04:47:43;;;;;;;2.85;2.52;;;16.70;99.90;;;;;;1948716;72;22162;-82
2022/06/01 04:50:55;;;;;;;4.45;2.42;;;16.80;99.90;;;;;;1912079;74;21051;-81
2022/06/01 04:54:06;;;;;;;3.12;2.70;;;16.80;99.90;;;;;;1884736;75;21162;-83
2022/06/01 04:56:58;;;;;;;3.90;2.52;;;16.80;99.90;;;;;;1886018;75;21055;-82
2022/06/01 05:00:11;;;;;;;8.43;3.37;;;16.90;99.90;;;;;;1901540;75;21105;-82
2022/06/01 05:03:04;;;;;;;3.90;3.15;;;16.90;99.90;;;;;;1890915;75;21094;-82
2022/06/01 05:08:35;;;;;;;4.05;2.50;;;16.90;99.90;;;;;;1932551;72;22150;-81
2022/06/01 05:11:45;;;;;;;4.72;2.25;;;17.00;99.90;;;;;;1894634;75;21020;-82
2022/06/01 05:17:34;;;;;;;5.25;2.83;;;17.00;99.90;;;;;;1941045;72;22616;-82
2022/06/01 05:23:22;;;;;;;2.92;2.52;;;17.00;99.90;;;;;;1945649;72;22235;-82
2022/06/01 05:26:31;;;;;;;2.85;2.10;;;17.10;99.90;;;;;;1889503;75;21099;-82
2022/06/01 05:29:41;;;;;;;2.45;1.80;;;17.20;99.90;;;;;;1901115;75;21100;-84
2022/06/01 05:32:32;;;;;;;3.62;2.22;;;17.30;99.90;;;;;;1895431;75;21113;-82
2022/06/01 05:38:23;;;;;;;3.90;1.98;;;17.30;99.90;;;;;;1937611;72;22899;-81
2022/06/01 05:41:33;;;;;;;3.95;1.90;;;17.40;99.90;;;;;;1894675;75;21090;-82
2022/06/01 05:44:43;;;;;;;3.47;1.90;;;17.50;99.90;;;;;;1885630;75;21149;-83
2022/06/01 05:47:34;;;;;;;2.85;2.05;;;17.50;99.90;;;;;;1903628;75;21224;-82
2022/06/01 05:50:44;;;;;;;5.47;2.10;;;17.60;99.90;;;;;;1886721;75;21125;-83
2022/06/01 05:53:35;;;;;;;3.27;2.27;;;17.80;99.90;;;;;;1891029;75;21102;-83
2022/06/01 05:56:27;;;;;;;5.12;2.58;;;17.90;99.90;;;;;;1910149;75;21123;-83
2022/06/01 05:59:19;;;;;;;4.25;2.30;;;18.00;99.90;;;;;;1895131;75;21203;-83
2022/06/01 06:04:51;;;;;;;5.25;2.85;;;18.10;99.90;;;;;;1940172;72;22555;-82
2022/06/01 06:08:02;;;;;;;2.85;2.42;;;18.10;99.90;;;;;;1888585;75;21079;-82
2022/06/01 06:13:51;;;;;;;5.33;2.67;;;18.00;99.90;;;;;;1937150;72;22154;-82
2022/06/01 06:17:01;;;;;;;5.85;2.80;;;18.00;99.90;;;;;;1912825;75;21096;-82
2022/06/01 06:20:14;;;;;;;3.85;2.50;;;18.00;99.90;;;;;;1904339;74;21101;-83
2022/06/01 06:23:07;;;;;;;3.33;2.90;;;18.00;99.90;;;;;;1894139;75;21149;-83
2022/06/01 06:26:20;;;;;;;6.12;3.45;;;18.00;99.90;;;;;;1912688;75;21061;-83
2022/06/01 06:31:51;;;;;;;6.35;4.00;;;18.00;99.90;;;;;;1918503;72;22175;-82
2022/06/01 06:35:00;;;;;;;7.83;4.25;;;18.00;99.90;;;;;;1891493;75;21118;-82
2022/06/01 06:38:11;;;;;;;5.28;4.28;;;18.00;99.90;;;;;;1905921;75;21159;-82
2022/06/01 06:41:04;;;;;;;4.05;3.60;;;18.00;99.90;;;;;;1909374;74;21093;-82
2022/06/01 06:46:58;;;;;;;5.42;4.50;;;18.10;99.90;;;;;;1925548;72;28118;-82
2022/06/01 06:52:48;;;;;;;6.58;4.33;;;18.40;99.90;;;;;;1936137;72;22197;-82
2022/06/01 06:55:59;;;;;;;6.97;4.75;;;18.50;99.90;;;;;;1906790;75;21079;-82
2022/06/01 07:01:47;;;;;;;8.20;4.47;;;18.60;99.90;;;;;;1953141;72;22243;-82
2022/06/01 07:04:57;;;;;;;5.22;4.28;;;18.70;99.90;;;;;;1923562;73;21071;-82
2022/06/01 07:08:09;;;;;;;5.28;4.17;;;18.80;99.90;;;;;;1920531;73;21155;-83
2022/06/01 07:11:01;;;;;;;7.28;4.65;;;19.00;99.90;;;;;;1917579;75;21076;-83
2022/06/01 07:16:49;;;;;;;6.03;5.10;;;19.40;99.90;;;;;;1934994;72;22715;-82
2022/06/01 07:19:59;;;;;;;5.42;4.78;;;19.60;99.90;;;;;;1904629;74;21184;-82
2022/06/01 07:23:10;;;;;;;5.08;4.12;;;19.70;99.90;;;;;;1906308;75;21083;-82
2022/06/01 07:26:01;;;;;;;5.50;4.28;;;20.00;99.90;;;;;;1909181;75;21110;-84
2022/06/01 07:31:51;;;;;;;6.05;4.40;;;20.30;99.90;;;;;;1946706;72;22197;-82
2022/06/01 07:35:03;;;;;;;4.10;3.72;;;20.30;99.90;;;;;;1927337;73;21094;-83
2022/06/01 07:44:01;;;;;;;5.33;4.83;;;20.60;99.90;;;;;;1951332;72;22095;-82
2022/06/01 07:49:50;;;;;;;4.08;3.42;;;20.80;99.90;;;;;;1946346;72;22276;-83
2022/06/01 07:53:02;;;;;;;4.08;2.42;;;20.80;99.90;;;;;;1899546;75;21602;-83
2022/06/01 07:56:12;;;;;;;4.78;3.25;;;20.80;99.90;;;;;;1899401;75;21211;-83
2022/06/01 07:59:05;;;;;;;4.33;2.95;;;20.60;99.90;;;;;;1884703;75;21129;-83
2022/06/01 08:02:15;;;;;;;4.45;2.67;;;20.60;99.90;;;;;;1894595;75;21074;-83
2022/06/01 08:05:08;;;;;;;3.37;2.67;;;20.70;99.90;;;;;;1891729;75;21107;-83
2022/06/01 08:07:59;;;;;;;4.08;2.85;;;20.80;99.90;;;;;;1894316;75;21180;-83
2022/06/01 08:10:51;;;;;;;3.50;2.60;;;20.70;99.90;;;;;;1906656;75;21158;-83
2022/06/01 08:13:43;;;;;;;3.05;2.75;;;20.80;99.90;;;;;;1901239;75;21054;-83
2022/06/01 08:16:35;;;;;;;4.03;3.60;;;20.70;99.90;;;;;;1909778;73;21117;-83
2022/06/01 08:19:26;;;;;;;4.67;3.45;;;20.70;99.90;;;;;;1884539;75;21047;-83
2022/06/01 08:22:18;;;;;;;3.98;3.58;;;20.80;99.90;;;;;;1899276;75;21160;-82
2022/06/01 08:25:13;;;;;;;4.60;3.90;;;20.90;99.90;;;;;;1891972;75;21055;-83
2022/06/01 08:28:05;;;;;;;6.53;3.90;;;20.70;99.90;;;;;;1886708;75;21574;-83
2022/06/01 08:30:58;;;;;;;7.30;4.42;;;20.60;99.90;;;;;;1889151;75;21157;-83
2022/06/01 08:33:50;;;;;;;7.08;4.65;;;20.60;99.90;;;;;;1855874;76;21121;-83
2022/06/01 08:36:41;;;;;;;6.45;4.87;;;20.70;99.90;;;;;;1884579;75;21188;-83
2022/06/01 08:39:33;;;;;;;9.43;4.95;;;20.70;99.90;;;;;;1891612;75;21631;-83
2022/06/01 08:42:27;;;;;;;6.55;4.12;;;20.60;99.90;;;;;;1883092;75;21091;-83
2022/06/01 08:45:22;;;;;;;5.33;4.00;;;20.50;99.90;;;;;;1894889;75;21090;-83
2022/06/01 08:48:16;;;;;;;7.00;3.98;;;20.40;99.90;;;;;;1880759;75;21054;-83
2022/06/01 08:51:09;;;;;;;6.42;3.90;;;20.40;99.90;;;;;;1907012;75;21066;-83
2022/06/01 08:54:01;;;;;;;5.42;4.35;;;20.40;99.90;;;;;;1904214;75;21679;-83
2022/06/01 08:56:56;;;;;;;5.22;3.70;;;20.40;99.90;;;;;;1906765;75;21164;-84
2022/06/01 08:59:50;;;;;;;6.92;4.08;;;20.40;99.90;;;;;;1903747;75;21043;-83
2022/06/01 09:02:46;;;;;;;4.15;3.67;;;20.50;99.90;;;;;;1832603;77;21105;-84
2022/06/01 09:05:44;;;;;;;5.53;3.80;;;20.60;99.90;;;;;;1894463;75;21223;-84
2022/06/01 09:08:41;;;;;;;4.15;3.77;;;20.60;99.90;;;;;;1906220;75;21055;-84
2022/06/01 09:11:37;;;;;;;9.75;3.35;;;20.60;99.90;;;;;;1890462;75;21167;-83
2022/06/01 09:17:08;;;;;;;6.22;4.12;;;20.60;99.90;;;;;;1928038;72;22232;-84
2022/06/01 09:23:47;;;;;;;4.75;4.17;;;20.60;99.90;;;;;;1888580;75;21055;-83
2022/06/01 09:26:51;;;;;;;6.95;4.67;;;20.70;99.90;;;;;;1887889;75;21115;-83
2022/06/01 09:30:03;;;;;;;4.83;4.35;;;20.80;99.90;;;;;;1882723;75;21136;-83
2022/06/01 09:33:06;;;;;;;6.50;3.98;;;20.90;99.90;;;;;;1891817;75;21162;-83
2022/06/01 09:36:08;;;;;;;8.50;4.30;;;21.00;99.90;;;;;;1886779;75;21055;-83
2022/06/01 09:39:03;;;;;;;7.12;3.67;;;21.30;99.90;;;;;;1888125;75;21179;-83
2022/06/01 09:42:10;;;;;;;6.75;4.42;;;21.60;99.90;;;;;;1848259;77;21570;-83
2022/06/01 09:47:43;;;;;;;5.78;3.83;;;21.90;99.90;;;;;;1948129;72;22223;-83
2022/06/01 09:51:07;;;;;;;5.72;4.17;;;22.10;99.90;;;;;;1925567;74;21103;-84
2022/06/01 09:57:00;;;;;;;6.42;3.75;;;22.40;99.90;;;;;;1927270;72;22164;-83
2022/06/01 10:06:50;;;;;;;7.17;3.52;;;22.40;99.90;;;;;;1856126;75;21195;-84
2022/06/01 10:10:01;;;;;;;7.22;3.50;;;22.50;99.90;;;;;;1901125;75;21094;-84
2022/06/01 10:12:55;;;;;;;8.50;3.60;;;22.40;99.90;;;;;;1899396;75;21507;-84
2022/06/01 10:16:08;;;;;;;6.22;3.22;;;22.40;99.90;;;;;;1916311;73;21077;-84
2022/06/01 10:19:03;;;;;;;4.47;3.20;;;22.40;99.90;;;;;;1893145;75;21079;-84
2022/06/01 10:24:40;;;;;;;5.00;3.00;;;22.50;99.90;;;;;;1951672;72;22170;-84
2022/06/01 10:27:54;;;;;;;6.10;3.70;;;22.60;99.90;;;;;;1899138;75;21159;-83
2022/06/01 10:31:06;;;;;;;5.72;3.75;;;22.60;99.90;;;;;;1903271;75;21108;-84
2022/06/01 10:34:02;;;;;;;6.30;4.85;;;22.70;99.90;;;;;;1914982;75;21102;-84
2022/06/01 10:46:13;;;;;;;4.53;3.75;;;22.50;99.90;;;;;;1920204;73;21060;-83
2022/06/01 10:52:11;;;;;;;6.00;3.02;;;22.70;99.90;;;;;;1933260;72;22217;-83
2022/06/01 10:55:28;;;;;;;4.72;2.85;;;22.70;99.90;;;;;;1881580;75;21145;-84
2022/06/01 10:58:38;;;;;;;3.07;2.77;;;22.80;99.90;;;;;;1884857;75;21091;-84
2022/06/01 11:01:39;;;;;;;7.33;3.15;;;22.70;99.90;;;;;;1886153;75;21115;-84
2022/06/01 11:05:09;;;;;;;4.60;3.08;;;22.80;99.90;;;;;;1889656;75;21161;-84
2022/06/01 11:08:07;;;;;;;5.20;2.83;;;23.10;99.90;;;;;;1872818;76;21150;-84
2022/06/01 11:13:47;;;;;;;7.53;2.90;;;23.40;99.90;;;;;;1947585;72;22110;-84
2022/06/01 11:16:59;;;;;;;5.25;2.92;;;23.70;99.90;;;;;;1896541;75;21105;-84
2022/06/01 11:23:47;;;;;;;3.50;3.20;;;23.90;99.90;;;;;;1953823;72;22165;-84
2022/06/01 11:27:06;;;;;;;5.97;2.95;;;24.10;99.90;;;;;;1891896;75;21158;-83
2022/06/01 11:30:20;;;;;;;3.37;2.50;;;24.00;99.90;;;;;;1891559;75;21123;-84
2022/06/01 11:33:16;;;;;;;5.55;3.02;;;24.10;99.90;;;;;;1914309;75;21176;-84
2022/06/01 11:36:35;;;;;;;5.05;2.50;;;24.10;99.90;;;;;;1900656;75;21526;-84
2022/06/01 11:42:12;;;;;;;3.95;2.40;;;24.30;99.90;;;;;;1944439;72;22170;-83
2022/06/01 11:48:05;;;;;;;4.00;2.30;;;24.70;99.90;;;;;;1932975;72;22148;-84
2022/06/01 11:51:17;;;;;;;3.20;2.60;;;24.50;99.90;;;;;;1877493;75;21122;-84
2022/06/01 11:54:33;;;;;;;3.10;2.75;;;24.70;99.90;;;;;;1900391;75;21136;-84
2022/06/01 11:57:28;;;;;;;3.05;2.45;;;25.00;99.90;;;;;;1884779;75;21103;-83
2022/06/01 12:00:42;;;;;;;8.15;3.00;;;25.00;99.90;;;;;;1884427;75;21109;-84
2022/06/01 12:03:41;;;;;;;4.62;2.60;;;25.20;99.90;;;;;;1894661;75;21125;-84
2022/06/01 12:06:50;;;;;;;3.80;2.30;;;25.40;99.90;;;;;;1889521;75;21157;-84
2022/06/01 12:09:47;;;;;;;3.72;2.60;;;25.50;99.90;;;;;;1878261;75;21154;-84
2022/06/01 12:12:59;;;;;;;3.50;2.42;;;25.60;99.90;;;;;;1881391;75;21162;-84
2022/06/01 12:16:12;;;;;;;3.08;2.40;;;25.80;99.90;;;;;;1902816;75;21142;-84
2022/06/01 12:21:59;;;;;;;4.95;3.20;;;26.10;99.90;;;;;;1909980;72;22573;-83
2022/06/01 12:31:21;;;;;;;3.98;3.20;;;25.80;99.90;;;;;;1945925;72;22338;-84
2022/06/01 12:37:14;;;;;;;4.90;3.17;;;25.90;99.90;;;;;;1944495;72;22247;-83
2022/06/01 12:43:06;;;;;;;4.47;2.80;;;26.10;99.90;;;;;;1944371;72;22146;-84
2022/06/01 12:46:25;;;;;;;5.78;2.95;;;26.10;99.90;;;;;;1884537;75;21046;-84
2022/06/01 12:49:37;;;;;;;4.92;2.77;;;26.20;99.90;;;;;;1884582;75;21138;-84
2022/06/01 12:52:31;;;;;;;3.22;2.50;;;26.30;99.90;;;;;;1884591;75;21162;-84
2022/06/01 12:55:41;;;;;;;2.90;2.40;;;26.20;99.90;;;;;;1904533;75;21130;-84
2022/06/01 12:58:33;;;;;;;4.42;2.80;;;26.10;99.90;;;;;;1895346;75;21174;-85
2022/06/01 13:01:32;;;;;;;4.55;2.47;;;26.20;99.90;;;;;;1902646;75;21127;-85
2022/06/01 13:04:26;;;;;;;3.25;2.10;;;26.30;99.90;;;;;;1891658;75;21114;-85
2022/06/01 13:07:19;;;;;;;3.80;2.10;;;26.60;99.90;;;;;;1886141;75;21102;-84
2022/06/01 13:10:14;;;;;;;6.72;2.30;;;26.70;99.90;;;;;;1900554;75;21125;-84
2022/06/01 13:13:08;;;;;;;3.47;2.10;;;26.80;99.90;;;;;;1897953;75;21206;-84
2022/06/01 13:16:02;;;;;;;5.25;2.25;;;27.00;99.90;;;;;;1910225;75;21134;-84
2022/06/01 13:18:55;;;;;;;4.97;2.10;;;27.10;99.90;;;;;;1897457;75;21129;-84
2022/06/01 13:21:51;;;;;;;6.22;2.20;;;27.10;99.90;;;;;;1906584;75;21090;-84
2022/06/01 13:24:45;;;;;;;3.35;2.30;;;27.10;99.90;;;;;;1914924;75;21170;-84
2022/06/01 13:27:38;;;;;;;4.70;2.45;;;27.10;99.90;;;;;;1886923;75;21149;-84
2022/06/01 13:33:17;;;;;;;5.60;2.40;;;26.90;99.90;;;;;;1926478;72;22153;-83
2022/06/01 13:36:34;;;;;;;3.92;2.62;;;26.70;99.90;;;;;;1889048;75;21517;-85
2022/06/01 13:39:47;;;;;;;2.30;2.10;;;26.80;99.90;;;;;;1914201;75;21082;-84
2022/06/01 13:42:42;;;;;;;5.97;2.65;;;27.20;99.90;;;;;;1910650;75;21117;-84
2022/06/01 13:45:56;;;;;;;2.40;2.20;;;27.60;99.90;;;;;;1904299;75;21176;-84
2022/06/01 13:48:52;;;;;;;5.30;2.85;;;27.90;99.90;;;;;;1903451;75;21047;-84
2022/06/01 13:51:47;;;;;;;5.27;2.63;;;28.10;99.90;;;;;;1867274;76;21054;-84
2022/06/01 13:54:38;;;;;;;6.10;2.30;;;28.20;99.90;;;;;;1902570;75;21300;-84
2022/06/01 13:57:31;;;;;;;5.45;2.50;;;28.60;99.90;;;;;;1896273;75;21052;-84
2022/06/01 14:00:29;;;;;;;5.17;2.37;;;29.10;99.90;;;;;;1896572;75;21063;-84
2022/06/01 14:03:25;;;;;;;4.03;2.60;;;29.40;99.90;;;;;;1895167;75;21117;-84
2022/06/01 14:06:16;;;;;;;4.45;2.40;;;30.00;99.90;;;;;;1912201;75;21087;-84
2022/06/01 14:09:11;;;;;;;7.72;2.08;;;30.10;99.90;;;;;;1884784;74;21058;-84
2022/06/01 14:12:04;;;;;;;4.03;2.10;;;31.00;99.90;;;;;;1907680;75;21161;-84
2022/06/01 14:14:58;;;;;;;2.22;1.90;;;31.20;99.90;;;;;;1903691;75;21086;-85
2022/06/01 14:20:30;;;;;;;4.08;1.85;;;32.10;99.90;;;;;;1942781;72;22364;-84
2022/06/01 14:23:40;;;;;;;5.50;2.12;;;31.80;99.90;;;;;;1899178;75;21119;-83
2022/06/01 14:32:43;;;;;;;3.52;2.37;;;33.10;99.90;;;;;;1945971;72;22251;-84
2022/06/01 14:35:53;;;;;;;4.87;2.17;;;33.50;99.90;;;;;;1903655;74;21171;-85
2022/06/01 14:39:03;;;;;;;3.52;2.20;;;33.30;99.70;;;;;;1913823;75;21575;-85
2022/06/01 14:41:55;;;;;;;2.92;2.12;;;33.10;99.50;;;;;;1902095;75;21101;-84
2022/06/01 14:47:44;;;;;;;3.60;2.17;;;33.80;97.30;;;;;;1947964;72;22244;-84
2022/06/01 14:53:37;;;;;;;2.40;2.08;;;34.90;93.20;;;;;;1944238;72;22130;-84
2022/06/01 14:56:48;;;;;;;2.83;1.87;;;34.40;92.40;;;;;;1889853;75;21083;-85
2022/06/01 14:59:58;;;;;;;3.27;1.98;;;34.20;91.50;;;;;;1878440;75;21081;-80
2022/06/01 15:02:51;;;;;;;2.80;1.62;;;34.30;91.60;;;;;;1893431;75;21072;-80
2022/06/01 15:06:04;;;;;;;3.10;2.00;;;35.30;90.80;;;;;;1884275;75;21074;-79
2022/06/01 15:11:35;;;;;;;2.95;1.62;;;36.60;86.10;;;;;;1948743;72;22106;-80
2022/06/01 15:17:28;;;;;;;4.47;1.80;;;36.40;78.50;;;;;;1941197;72;22160;-80
2022/06/01 15:20:39;;;;;;;3.33;1.65;;;35.90;79.00;;;;;;1902295;75;21105;-80
2022/06/01 15:23:50;;;;;;;4.60;1.55;;;36.10;78.00;;;;;;1907670;74;21091;-85
2022/06/01 15:26:44;;;;;;;3.62;1.77;;;37.10;75.20;;;;;;1911731;74;21055;-85
2022/06/01 15:42:12;;;;;;;4.70;1.60;;;33.10;78.70;;;;;;1917194;72;22246;-80
2022/06/01 15:45:22;;;;;;;1.67;1.55;;;32.60;80.80;;;;;;1899465;75;21106;-80
2022/06/01 15:48:34;;;;;;;2.92;1.95;;;32.10;81.70;;;;;;1895355;75;21155;-80
2022/06/01 15:51:27;;;;;;;2.60;1.75;;;32.50;82.70;;;;;;1912619;74;21059;-80
2022/06/01 15:57:18;;;;;;;2.58;1.67;;;31.90;82.20;;;;;;1925084;72;22228;-79
2022/06/01 16:00:28;;;;;;;5.53;2.10;;;31.60;83.50;;;;;;1882493;75;21231;-79
2022/06/01 16:03:38;;;;;;;5.85;1.77;;;31.80;82.80;;;;;;1911745;74;21078;-84
2022/06/01 16:06:29;;;;;;;3.17;1.72;;;31.60;82.00;;;;;;1887421;75;21542;-84
2022/06/01 16:09:40;;;;;;;3.50;1.77;;;30.80;83.30;;;;;;1884554;75;21153;-84
2022/06/01 16:12:32;;;;;;;2.98;1.55;;;30.40;84.50;;;;;;1900665;75;21272;-84
2022/06/01 16:15:24;;;;;;;3.67;2.00;;;30.80;84.70;;;;;;1896727;73;21252;-85
2022/06/01 16:18:16;;;;;;;3.90;1.85;;;31.50;83.80;;;;;;1884635;76;21142;-86
2022/06/01 16:21:11;;;;;;;2.65;1.75;;;31.50;83.80;;;;;;1884554;75;21076;-80
2022/06/01 16:24:04;;;;;;;6.60;1.85;;;31.00;84.80;;;;;;1907629;75;21584;-80
2022/06/01 16:26:58;;;;;;;2.55;1.60;;;32.20;83.80;;;;;;1883102;75;21109;-80
2022/06/01 16:32:32;;;;;;;2.15;1.60;;;31.80;80.90;;;;;;1958708;72;22137;-80
2022/06/01 16:35:43;;;;;;;2.20;1.67;;;31.00;82.70;;;;;;1917683;74;21157;-80
2022/06/01 16:38:54;;;;;;;3.20;1.60;;;29.90;84.20;;;;;;1912360;74;21577;-80
2022/06/01 16:41:48;;;;;;;1.95;1.40;;;29.40;85.70;;;;;;1924979;74;21111;-80
2022/06/01 16:44:58;;;;;;;4.05;1.57;;;29.00;86.50;;;;;;1911379;74;21183;-79
2022/06/01 16:47:49;;;;;;;4.20;2.10;;;28.90;88.20;;;;;;1916143;74;21114;-79
2022/06/01 16:50:41;;;;;;;2.95;1.92;;;29.00;89.00;;;;;;1924048;74;21611;-79
2022/06/01 16:53:33;;;;;;;2.75;1.60;;;29.10;89.50;;;;;;1905091;75;21113;-79
2022/06/01 16:56:28;;;;;;;3.52;1.80;;;29.30;90.00;;;;;;1924627;74;21192;-79
2022/06/01 16:59:20;;;;;;;2.75;1.72;;;31.20;87.80;;;;;;1916748;74;21090;-80
2022/06/01 17:02:16;;;;;;;2.90;1.70;;;33.20;82.50;;;;;;1905224;74;21051;-79
2022/06/01 17:07:51;;;;;;;2.95;1.55;;;36.20;76.70;;;;;;1930704;72;22246;-79
2022/06/01 17:11:00;;;;;;;3.98;1.92;;;36.80;74.20;;;;;;1891233;75;21177;-79
2022/06/01 17:16:50;;;;;;;3.58;2.40;;;36.80;71.80;;;;;;1940340;72;22272;-79
2022/06/01 17:20:02;;;;;;;3.50;3.20;;;35.30;72.80;;;;;;1902301;73;21114;-79
2022/06/01 17:23:14;;;;;;;4.87;2.15;;;33.10;76.00;;;;;;1915542;75;21107;-79
2022/06/01 17:28:47;;;;;;;3.62;2.25;;;30.50;81.00;;;;;;1940749;72;22126;-81
2022/06/01 17:31:58;;;;;;;4.53;2.15;;;30.00;82.70;;;;;;1881503;75;21087;-80
2022/06/01 17:37:46;;;;;;;3.25;1.92;;;30.20;83.90;;;;;;1957708;72;22177;-85
2022/06/01 17:43:45;;;;;;;3.37;1.98;;;30.40;83.30;;;;;;1950675;72;22273;-87
2022/06/01 17:46:54;;;;;;;;;;;30.10;84.80;;;;;;1942168;73;21238;-85
2022/06/01 17:52:41;;;;;;;1.85;1.70;;;30.00;87.10;;;;;;1934763;72;22210;-86
2022/06/01 17:55:56;;;;;;;3.83;1.82;;;29.50;88.10;;;;;;1897550;75;21042;-87
2022/06/01 17:59:09;;;;;;;3.42;1.60;;;28.90;90.00;;;;;;1895005;75;21094;-86
2022/06/01 18:02:00;;;;;;;2.70;1.80;;;28.40;90.90;;;;;;1886960;75;21094;-86
2022/06/01 18:07:56;;;;;;;2.77;2.10;;;27.70;92.50;;;;;;1945342;72;22169;-85
2022/06/01 18:11:06;;;;;;;5.20;2.45;;;27.30;92.70;;;;;;1896050;75;21039;-86
2022/06/01 18:16:58;;;;;;;3.37;1.90;;;26.70;94.30;;;;;;1946887;72;22177;-86
2022/06/01 18:22:52;;;;;;;4.50;2.05;;;26.40;95.40;;;;;;1938087;72;22181;-86
2022/06/01 18:26:02;;;;;;;3.62;2.00;;;26.20;95.80;;;;;;1910009;75;21332;-86
2022/06/01 18:31:52;;;;;;;3.27;1.60;;;25.90;96.60;;;;;;1946770;72;22138;-85
2022/06/01 18:35:05;;;;;;;2.77;1.90;;;25.70;97.20;;;;;;1887863;73;21561;-86
2022/06/01 18:38:16;;;;;;;2.10;1.47;;;25.60;98.20;;;;;;1903197;75;21082;-88
2022/06/01 18:41:08;;;;;;;6.53;1.85;;;25.30;99.00;;;;;;1884638;75;21128;-85
2022/06/01 18:46:58;;;;;;;3.00;2.00;;;24.90;99.90;;;;;;1936299;72;22277;-85
2022/06/01 18:50:10;;;;;;;3.92;1.90;;;24.80;99.90;;;;;;1922584;73;21113;-86
2022/06/01 18:53:21;;;;;;;2.20;1.30;;;24.60;99.90;;;;;;1878515;76;21042;-86
2022/06/01 18:56:12;;;;;;;3.85;1.60;;;24.40;99.90;;;;;;1922755;73;21144;-86
2022/06/01 19:02:01;;;;;;;6.47;1.98;;;24.00;99.90;;;;;;1949935;72;22285;-86
2022/06/01 19:05:12;;;;;;;3.05;2.30;;;23.80;99.90;;;;;;1892175;74;21102;-86
2022/06/01 19:08:27;;;;;;;3.20;1.95;;;23.70;99.90;;;;;;1891403;75;21525;-85
2022/06/01 19:14:01;;;;;;;3.80;1.82;;;23.40;99.90;;;;;;1942019;72;22149;-86
2022/06/01 19:17:13;;;;;;;6.45;1.90;;;23.40;99.90;;;;;;1896184;75;21169;-86
2022/06/01 19:20:24;;;;;;;5.75;2.02;;;23.40;99.90;;;;;;1905410;73;21043;-86
2022/06/01 19:23:16;;;;;;;5.75;2.10;;;23.40;99.90;;;;;;1887178;75;21597;-86
2022/06/01 19:26:26;;;;;;;5.25;2.50;;;23.40;99.90;;;;;;1905306;73;21051;-86
2022/06/01 19:29:22;;;;;;;4.83;2.15;;;23.40;99.90;;;;;;1914569;73;21080;-86
2022/06/01 19:32:13;;;;;;;4.37;1.77;;;23.30;99.90;;;;;;1910574;73;21062;-86
2022/06/01 19:35:06;;;;;;;4.70;2.33;;;23.30;99.90;;;;;;1890655;75;21047;-86
2022/06/01 19:44:07;;;;;;;5.45;2.85;;;23.10;99.90;;;;;;1927229;72;22190;-86